Morenci, Arizona
Current Conditions -  °F | °C
As of 4:51 PM on Sunday 23 Nov 2014 (Local Time) from KSAD Reporting Station
Clear Clear  
Wind Chill: 60°   Ceiling: Unl
Heat Index: 60°   Visibility: 10mi
Dew Point: -9°   Wind: 26mph
Humidity: 6%   Direction: 330°NNW
Pressure: 30.01"   Gusts: 43mph
Location:  33.08°N, 109.37°W
Report Text: KSAD 232351Z AUTO 33023G37KT 10SM CLR 16/M23 A3001 RMK AO2 PK WND 32037/2347 SLP147 T01561228 10189 20156 53022
Loading
Personal Weather Stations






























Interactive Weather Map New forecast layout! Learn more

10-Day Weather Forecast

Advertisements
Track Severe Weather on mobile